Pagina principale
METAR-TAF:

METAR-TAF

Aeroporti :

Aeroporto di Rivolto

Udine, Italia

latitudine: 45-59N, longitudine: 013-02E, altezza: 51 m

Osservazione

Il bollettino è stato emesso 4 ore e 24 minuti fa, alle 14:55 UTC
Temperature 22°C
Umidità 46%
Pressione 1018 hPa
Visibilità 10 km o più
Poco nuvoloso ad un'altezza di 5000 ft
Nubi sparse ad un'altezza di 6000 ft

METAR: LIPI 231455Z /////KT 9999 FEW050 SCT060 22/10 Q1018 RMK BKN VIS MIN 9999 WIND THR06 19007KT WIND THR24 20008KT BLU

Ora: 21:19 (19:19 UTC)

Previsione

Il bollettino è stato emesso 5 ore e 19 minuti fa, alle 14:00 UTC
Previsione valida dal 23 alle 15 UTC al 23 alle 24 UTC
Vento 5 kt da direzioni variabili
Visibilità 10 km o più
Nubi sparse ad un'altezza di 5000 ft

TAF: LIPI 231400Z 2315/2324 VRB05KT 9999 SCT050

Osservazioni e previsioni meteorologiche di più di 4000 aeroporti (messaggi METAR e TAF).

Le stazioni disponibili sono rappresentate dai dischi gialli e rossi sulla carta.

Puntare il mouse per vedere il nome della stazione.

Clicca sopra per visualizzare le osservazioni e previsioni meteorologiche.

Per cambiare la mappa : fare clic sui pulsanti verdi con una croce nera per ingrandire, il pulsante verde con un trattino per diminuire, o sulla freccia verde per le mappe adiacenti.


METAR-TAF: